sensor_id;sensor_type;location;lat;lon;timestamp;pressure;altitude;pressure_sealevel;temperature;humidity
72294;BME280;60632;49.236;8.398;2023-04-19T00:02:26;101202.75;;;23.87;39.22
72294;BME280;60632;49.236;8.398;2023-04-19T00:05:27;101203.88;;;23.86;39.25
72294;BME280;60632;49.236;8.398;2023-04-19T00:08:28;101214.94;;;23.86;39.39
72294;BME280;60632;49.236;8.398;2023-04-19T00:11:28;101207.47;;;23.87;39.38
72294;BME280;60632;49.236;8.398;2023-04-19T00:14:28;101205.53;;;23.87;39.29
72294;BME280;60632;49.236;8.398;2023-04-19T00:17:29;101209.41;;;23.86;39.38
72294;BME280;60632;49.236;8.398;2023-04-19T00:20:29;101207.47;;;23.87;39.24
72294;BME280;60632;49.236;8.398;2023-04-19T00:23:29;101203.88;;;23.86;39.36
72294;BME280;60632;49.236;8.398;2023-04-19T00:26:30;101204.69;;;23.87;39.31
72294;BME280;60632;49.236;8.398;2023-04-19T00:29:30;101199.16;;;23.87;39.20
72294;BME280;60632;49.236;8.398;2023-04-19T00:32:30;101192.78;;;23.86;39.40
72294;BME280;60632;49.236;8.398;2023-04-19T00:35:31;101193.63;;;23.87;39.39
72294;BME280;60632;49.236;8.398;2023-04-19T00:38:31;101201.91;;;23.87;39.22
72294;BME280;60632;49.236;8.398;2023-04-19T00:41:31;101191.97;;;23.86;39.43
72294;BME280;60632;49.236;8.398;2023-04-19T00:44:32;101192.78;;;23.86;39.45
72294;BME280;60632;49.236;8.398;2023-04-19T00:47:32;101192.78;;;23.86;39.18
72294;BME280;60632;49.236;8.398;2023-04-19T00:50:33;101189.22;;;23.86;39.33
72294;BME280;60632;49.236;8.398;2023-04-19T00:53:35;101192.78;;;23.86;39.28
72294;BME280;60632;49.236;8.398;2023-04-19T00:56:35;101188.06;;;23.87;39.28
72294;BME280;60632;49.236;8.398;2023-04-19T00:59:36;101188.06;;;23.87;39.34
72294;BME280;60632;49.236;8.398;2023-04-19T01:02:36;101179.78;;;23.87;39.23
72294;BME280;60632;49.236;8.398;2023-04-19T01:05:37;101187.25;;;23.86;39.40
72294;BME280;60632;49.236;8.398;2023-04-19T01:08:37;101181.72;;;23.86;39.21
72294;BME280;60632;49.236;8.398;2023-04-19T01:11:38;101178.97;;;23.86;39.32
72294;BME280;60632;49.236;8.398;2023-04-19T01:14:39;101177.31;;;23.85;39.32
72294;BME280;60632;49.236;8.398;2023-04-19T01:17:40;101179.78;;;23.87;39.36
72294;BME280;60632;49.236;8.398;2023-04-19T01:20:40;101180.91;;;23.86;39.26
72294;BME280;60632;49.236;8.398;2023-04-19T01:23:40;101187.25;;;23.86;39.26
72294;BME280;60632;49.236;8.398;2023-04-19T01:26:41;101185.63;;;23.85;39.16
72294;BME280;60632;49.236;8.398;2023-04-19T01:29:41;101187.25;;;23.86;39.32
72294;BME280;60632;49.236;8.398;2023-04-19T01:32:42;101194.75;;;23.86;39.27
72294;BME280;60632;49.236;8.398;2023-04-19T01:35:42;101189.22;;;23.86;39.15
72294;BME280;60632;49.236;8.398;2023-04-19T01:38:42;101185.63;;;23.85;39.32
72294;BME280;60632;49.236;8.398;2023-04-19T01:41:43;101178.13;;;23.86;39.21
72294;BME280;60632;49.236;8.398;2023-04-19T01:44:44;101174.56;;;23.85;39.25
72294;BME280;60632;49.236;8.398;2023-04-19T01:47:46;101178.13;;;23.86;39.09
72294;BME280;60632;49.236;8.398;2023-04-19T01:50:46;101173.41;;;23.86;39.29
72294;BME280;60632;49.236;8.398;2023-04-19T01:53:46;101163.47;;;23.85;39.21
72294;BME280;60632;49.236;8.398;2023-04-19T01:56:52;101159.56;;;23.86;39.22
72294;BME280;60632;49.236;8.398;2023-04-19T01:59:52;101152.41;;;23.85;39.22
72294;BME280;60632;49.236;8.398;2023-04-19T02:02:53;101157.94;;;23.85;39.10
72294;BME280;60632;49.236;8.398;2023-04-19T02:05:53;101154.03;;;23.86;39.21
72294;BME280;60632;49.236;8.398;2023-04-19T02:08:53;101151.59;;;23.85;39.17
72294;BME280;60632;49.236;8.398;2023-04-19T02:11:54;101153.22;;;23.86;39.14
72294;BME280;60632;49.236;8.398;2023-04-19T02:14:54;101148.50;;;23.86;39.25
72294;BME280;60632;49.236;8.398;2023-04-19T02:17:58;101139.38;;;23.86;39.17
72294;BME280;60632;49.236;8.398;2023-04-19T02:20:59;101141.34;;;23.85;39.06
72294;BME280;60632;49.236;8.398;2023-04-19T02:23:59;101138.56;;;23.85;39.16
72294;BME280;60632;49.236;8.398;2023-04-19T02:27:00;101131.09;;;23.86;39.08
72294;BME280;60632;49.236;8.398;2023-04-19T02:30:01;101133.03;;;23.85;39.11
72294;BME280;60632;49.236;8.398;2023-04-19T02:33:01;101131.91;;;23.86;39.02
72294;BME280;60632;49.236;8.398;2023-04-19T02:36:01;101131.09;;;23.86;39.19
72294;BME280;60632;49.236;8.398;2023-04-19T02:39:02;101131.09;;;23.86;39.21
72294;BME280;60632;49.236;8.398;2023-04-19T02:42:02;101124.72;;;23.85;39.07
72294;BME280;60632;49.236;8.398;2023-04-19T02:45:02;101124.72;;;23.85;39.11
72294;BME280;60632;49.236;8.398;2023-04-19T02:48:03;101120.81;;;23.86;39.02
72294;BME280;60632;49.236;8.398;2023-04-19T02:51:03;101119.19;;;23.85;39.22
72294;BME280;60632;49.236;8.398;2023-04-19T02:54:04;101127.19;;;23.87;39.05
72294;BME280;60632;49.236;8.398;2023-04-19T02:57:04;101119.19;;;23.85;39.00
72294;BME280;60632;49.236;8.398;2023-04-19T03:00:05;101120.81;;;23.86;39.13
72294;BME280;60632;49.236;8.398;2023-04-19T03:03:05;101116.44;;;23.85;39.06
72294;BME280;60632;49.236;8.398;2023-04-19T03:06:06;101120.00;;;23.86;39.07
72294;BME280;60632;49.236;8.398;2023-04-19T03:09:07;101110.88;;;23.85;39.21
72294;BME280;60632;49.236;8.398;2023-04-19T03:12:07;101116.44;;;23.85;39.04
72294;BME280;60632;49.236;8.398;2023-04-19T03:15:08;101110.88;;;23.85;39.03
72294;BME280;60632;49.236;8.398;2023-04-19T03:18:09;101108.13;;;23.85;39.03
72294;BME280;60632;49.236;8.398;2023-04-19T03:21:09;101102.59;;;23.85;38.78
72294;BME280;60632;49.236;8.398;2023-04-19T03:24:10;101097.88;;;23.86;39.04
72294;BME280;60632;49.236;8.398;2023-04-19T03:27:11;101094.28;;;23.85;39.04
72294;BME280;60632;49.236;8.398;2023-04-19T03:30:11;101096.22;;;23.85;38.92
72294;BME280;60632;49.236;8.398;2023-04-19T03:33:12;101097.03;;;23.85;39.00
72294;BME280;60632;49.236;8.398;2023-04-19T03:36:12;101094.28;;;23.85;38.92
72294;BME280;60632;49.236;8.398;2023-04-19T03:39:12;101091.50;;;23.85;38.95
72294;BME280;60632;49.236;8.398;2023-04-19T03:42:13;101095.41;;;23.84;38.97
72294;BME280;60632;49.236;8.398;2023-04-19T03:45:13;101090.69;;;23.85;38.93
72294;BME280;60632;49.236;8.398;2023-04-19T03:48:13;101085.97;;;23.85;38.99
72294;BME280;60632;49.236;8.398;2023-04-19T03:51:14;101088.75;;;23.85;39.00
72294;BME280;60632;49.236;8.398;2023-04-19T03:54:15;101083.22;;;23.85;38.94
72294;BME280;60632;49.236;8.398;2023-04-19T03:57:15;101084.34;;;23.84;38.77
72294;BME280;60632;49.236;8.398;2023-04-19T04:00:16;101078.81;;;23.84;38.95
72294;BME280;60632;49.236;8.398;2023-04-19T04:03:17;101082.38;;;23.85;39.00
72294;BME280;60632;49.236;8.398;2023-04-19T04:06:17;101078.81;;;23.84;38.95
72294;BME280;60632;49.236;8.398;2023-04-19T04:09:17;101085.97;;;23.85;38.88
72294;BME280;60632;49.236;8.398;2023-04-19T04:12:17;101081.56;;;23.84;38.93
72294;BME280;60632;49.236;8.398;2023-04-19T04:15:18;101084.34;;;23.84;38.93
72294;BME280;60632;49.236;8.398;2023-04-19T04:18:18;101085.97;;;23.85;39.00
72294;BME280;60632;49.236;8.398;2023-04-19T04:21:19;101081.56;;;23.84;38.94
72294;BME280;60632;49.236;8.398;2023-04-19T04:24:19;101074.91;;;23.85;38.96
72294;BME280;60632;49.236;8.398;2023-04-19T04:27:21;101079.63;;;23.85;38.99
72294;BME280;60632;49.236;8.398;2023-04-19T04:30:21;101078.81;;;23.84;39.08
72294;BME280;60632;49.236;8.398;2023-04-19T04:33:25;101082.38;;;23.85;38.84
72294;BME280;60632;49.236;8.398;2023-04-19T04:36:25;101074.91;;;23.85;38.86
72294;BME280;60632;49.236;8.398;2023-04-19T04:39:28;101079.63;;;23.85;38.84
72294;BME280;60632;49.236;8.398;2023-04-19T04:42:29;101082.38;;;23.85;38.83
72294;BME280;60632;49.236;8.398;2023-04-19T04:45:30;101077.66;;;23.85;38.72
72294;BME280;60632;49.236;8.398;2023-04-19T04:48:31;101085.16;;;23.85;38.77
72294;BME280;60632;49.236;8.398;2023-04-19T04:51:31;101085.97;;;23.85;38.85
72294;BME280;60632;49.236;8.398;2023-04-19T04:54:31;101085.97;;;23.85;38.85
72294;BME280;60632;49.236;8.398;2023-04-19T04:57:32;101085.97;;;23.85;38.81
72294;BME280;60632;49.236;8.398;2023-04-19T05:00:32;101082.38;;;23.85;38.72
72294;BME280;60632;49.236;8.398;2023-04-19T05:03:33;101085.97;;;23.85;38.86
72294;BME280;60632;49.236;8.398;2023-04-19T05:06:33;101090.69;;;23.85;38.98
72294;BME280;60632;49.236;8.398;2023-04-19T05:09:34;101091.50;;;23.85;38.88
72294;BME280;60632;49.236;8.398;2023-04-19T05:12:35;101089.88;;;23.84;38.91
72294;BME280;60632;49.236;8.398;2023-04-19T05:15:35;101095.41;;;23.84;38.73
72294;BME280;60632;49.236;8.398;2023-04-19T05:18:36;101094.59;;;23.84;38.88
72294;BME280;60632;49.236;8.398;2023-04-19T05:21:36;101095.41;;;23.84;38.91
72294;BME280;60632;49.236;8.398;2023-04-19T05:24:36;101106.50;;;23.84;38.83
72294;BME280;60632;49.236;8.398;2023-04-19T05:27:37;101095.41;;;23.84;38.80
72294;BME280;60632;49.236;8.398;2023-04-19T05:30:37;101098.19;;;23.84;38.63
72294;BME280;60632;49.236;8.398;2023-04-19T05:33:37;101100.13;;;23.84;38.88
72294;BME280;60632;49.236;8.398;2023-04-19T05:36:38;101100.13;;;23.84;38.69
72294;BME280;60632;49.236;8.398;2023-04-19T05:39:38;101095.41;;;23.84;38.77
72294;BME280;60632;49.236;8.398;2023-04-19T05:42:38;101102.91;;;23.84;39.00
72294;BME280;60632;49.236;8.398;2023-04-19T05:45:38;101098.19;;;23.84;38.70
72294;BME280;60632;49.236;8.398;2023-04-19T05:48:39;101102.59;;;23.85;38.87
72294;BME280;60632;49.236;8.398;2023-04-19T05:51:39;101093.75;;;23.83;38.77
72294;BME280;60632;49.236;8.398;2023-04-19T05:54:39;101100.41;;;23.82;38.65
72294;BME280;60632;49.236;8.398;2023-04-19T05:57:40;101099.28;;;23.83;38.86
72294;BME280;60632;49.236;8.398;2023-04-19T06:00:40;101105.66;;;23.84;38.96
72294;BME280;60632;49.236;8.398;2023-04-19T06:03:41;101100.94;;;23.84;38.76
72294;BME280;60632;49.236;8.398;2023-04-19T06:06:42;101099.28;;;23.83;38.79
72294;BME280;60632;49.236;8.398;2023-04-19T06:09:42;101102.91;;;23.84;38.81
72294;BME280;60632;49.236;8.398;2023-04-19T06:12:42;101099.28;;;23.83;38.85
72294;BME280;60632;49.236;8.398;2023-04-19T06:15:42;101100.13;;;23.84;38.78
72294;BME280;60632;49.236;8.398;2023-04-19T06:18:43;101106.50;;;23.84;38.78
72294;BME280;60632;49.236;8.398;2023-04-19T06:21:43;101096.22;;;23.85;38.61
72294;BME280;60632;49.236;8.398;2023-04-19T06:24:44;101105.66;;;23.84;38.73
72294;BME280;60632;49.236;8.398;2023-04-19T06:27:47;101112.03;;;23.84;38.87
72294;BME280;60632;49.236;8.398;2023-04-19T06:30:47;101112.03;;;23.84;38.78
72294;BME280;60632;49.236;8.398;2023-04-19T06:33:48;101109.25;;;23.84;38.88
72294;BME280;60632;49.236;8.398;2023-04-19T06:36:48;101106.50;;;23.84;38.94
72294;BME280;60632;49.236;8.398;2023-04-19T06:39:49;101109.25;;;23.84;38.81
72294;BME280;60632;49.236;8.398;2023-04-19T06:42:49;101112.84;;;23.85;38.78
72294;BME280;60632;49.236;8.398;2023-04-19T06:45:56;101118.38;;;23.85;38.72
72294;BME280;60632;49.236;8.398;2023-04-19T06:48:56;101102.59;;;23.85;38.78
72294;BME280;60632;49.236;8.398;2023-04-19T06:51:58;101112.03;;;23.84;38.79
72294;BME280;60632;49.236;8.398;2023-04-19T06:54:58;101101.78;;;23.85;38.84
72294;BME280;60632;49.236;8.398;2023-04-19T06:57:59;101094.59;;;23.84;38.80
72294;BME280;60632;49.236;8.398;2023-04-19T07:01:00;101097.03;;;23.85;38.81
72294;BME280;60632;49.236;8.398;2023-04-19T07:04:01;101097.03;;;23.85;38.79
72294;BME280;60632;49.236;8.398;2023-04-19T07:07:01;101092.31;;;23.86;38.65
72294;BME280;60632;49.236;8.398;2023-04-19T07:10:02;101094.28;;;23.85;38.75
72294;BME280;60632;49.236;8.398;2023-04-19T07:13:02;101095.09;;;23.86;38.80
72294;BME280;60632;49.236;8.398;2023-04-19T07:16:03;101093.13;;;23.86;38.69
72294;BME280;60632;49.236;8.398;2023-04-19T07:19:03;101085.97;;;23.85;38.69
72294;BME280;60632;49.236;8.398;2023-04-19T07:22:04;101090.38;;;23.86;38.88
72294;BME280;60632;49.236;8.398;2023-04-19T07:25:05;101087.59;;;23.86;38.70
72294;BME280;60632;49.236;8.398;2023-04-19T07:28:05;101087.59;;;23.86;38.78
72294;BME280;60632;49.236;8.398;2023-04-19T07:31:06;101085.16;;;23.85;38.75
72294;BME280;60632;49.236;8.398;2023-04-19T07:34:06;101087.59;;;23.86;38.69
72294;BME280;60632;49.236;8.398;2023-04-19T07:37:07;101082.88;;;23.87;38.67
72294;BME280;60632;49.236;8.398;2023-04-19T07:40:07;101087.59;;;23.86;38.86
72294;BME280;60632;49.236;8.398;2023-04-19T07:43:07;101078.19;;;23.87;38.72
72294;BME280;60632;49.236;8.398;2023-04-19T07:46:09;101071.00;;;23.86;38.61
72294;BME280;60632;49.236;8.398;2023-04-19T07:49:09;101066.28;;;23.87;38.66
72294;BME280;60632;49.236;8.398;2023-04-19T07:52:10;101066.28;;;23.87;38.66
72294;BME280;60632;49.236;8.398;2023-04-19T07:55:10;101071.53;;;23.88;38.66
72294;BME280;60632;49.236;8.398;2023-04-19T07:58:10;101077.06;;;23.88;38.68
72294;BME280;60632;49.236;8.398;2023-04-19T08:01:11;101074.28;;;23.88;38.73
72294;BME280;60632;49.236;8.398;2023-04-19T08:04:11;101075.91;;;23.89;38.73
72294;BME280;60632;49.236;8.398;2023-04-19T08:07:11;101066.81;;;23.89;38.52
72294;BME280;60632;49.236;8.398;2023-04-19T08:10:12;101070.38;;;23.89;38.63
72294;BME280;60632;49.236;8.398;2023-04-19T08:13:12;101064.84;;;23.89;38.69
72294;BME280;60632;49.236;8.398;2023-04-19T08:16:13;101059.31;;;23.89;38.71
72294;BME280;60632;49.236;8.398;2023-04-19T08:19:13;101050.72;;;23.91;38.73
72294;BME280;60632;49.236;8.398;2023-04-19T08:22:14;101051.53;;;23.91;38.72
72294;BME280;60632;49.236;8.398;2023-04-19T08:25:15;101050.72;;;23.91;38.66
72294;BME280;60632;49.236;8.398;2023-04-19T08:28:16;101057.06;;;23.91;38.68
72294;BME280;60632;49.236;8.398;2023-04-19T08:31:16;101055.13;;;23.92;38.57
72294;BME280;60632;49.236;8.398;2023-04-19T08:34:18;101053.16;;;23.92;38.60
72294;BME280;60632;49.236;8.398;2023-04-19T08:37:19;101058.69;;;23.92;38.78
72294;BME280;60632;49.236;8.398;2023-04-19T08:40:19;101049.28;;;23.93;38.49
72294;BME280;60632;49.236;8.398;2023-04-19T08:43:20;101059.53;;;23.93;38.79
72294;BME280;60632;49.236;8.398;2023-04-19T08:46:21;101052.88;;;23.94;38.55
72294;BME280;60632;49.236;8.398;2023-04-19T08:49:22;101059.22;;;23.94;38.48
72294;BME280;60632;49.236;8.398;2023-04-19T08:52:23;101059.22;;;23.94;38.65
72294;BME280;60632;49.236;8.398;2023-04-19T08:55:24;101053.69;;;23.94;38.67
72294;BME280;60632;49.236;8.398;2023-04-19T08:58:24;101053.69;;;23.94;38.72
72294;BME280;60632;49.236;8.398;2023-04-19T09:01:25;101057.28;;;23.95;38.66
72294;BME280;60632;49.236;8.398;2023-04-19T09:04:26;101047.03;;;23.95;38.53
72294;BME280;60632;49.236;8.398;2023-04-19T09:07:26;101035.94;;;23.95;38.63
72294;BME280;60632;49.236;8.398;2023-04-19T09:10:27;101042.28;;;23.96;38.64
72294;BME280;60632;49.236;8.398;2023-04-19T09:13:27;101040.34;;;23.96;38.77
72294;BME280;60632;49.236;8.398;2023-04-19T09:16:28;101037.56;;;23.96;38.66
72294;BME280;60632;49.236;8.398;2023-04-19T09:19:33;101026.50;;;23.96;38.74
72294;BME280;60632;49.236;8.398;2023-04-19T09:22:44;101025.41;;;23.97;38.68
72294;BME280;60632;49.236;8.398;2023-04-19T09:26:01;101017.91;;;23.98;38.77
72294;BME280;60632;49.236;8.398;2023-04-19T09:29:06;101017.56;;;23.99;38.72
72294;BME280;60632;49.236;8.398;2023-04-19T09:32:07;101023.13;;;23.99;38.71
72294;BME280;60632;49.236;8.398;2023-04-19T09:35:07;101020.34;;;23.99;38.69
72294;BME280;60632;49.236;8.398;2023-04-19T09:38:08;101008.16;;;24.01;38.59
72294;BME280;60632;49.236;8.398;2023-04-19T09:41:08;101001.50;;;24.02;38.93
72294;BME280;60632;49.236;8.398;2023-04-19T09:44:09;100993.19;;;24.02;38.78
72294;BME280;60632;49.236;8.398;2023-04-19T09:47:26;100999.25;;;24.04;38.75
72294;BME280;60632;49.236;8.398;2023-04-19T09:50:28;101000.88;;;24.05;38.72
72294;BME280;60632;49.236;8.398;2023-04-19T09:53:29;100992.56;;;24.05;38.87
72294;BME280;60632;49.236;8.398;2023-04-19T09:56:33;100981.16;;;24.06;38.88
72294;BME280;60632;49.236;8.398;2023-04-19T09:59:35;100983.66;;;24.08;38.94
72294;BME280;60632;49.236;8.398;2023-04-19T10:02:35;100978.09;;;24.08;38.78
72294;BME280;60632;49.236;8.398;2023-04-19T10:05:37;100973.09;;;24.10;38.79
72294;BME280;60632;49.236;8.398;2023-04-19T10:08:38;100967.56;;;24.10;38.92
72294;BME280;60632;49.236;8.398;2023-04-19T10:11:38;100968.03;;;24.12;38.84
72294;BME280;60632;49.236;8.398;2023-04-19T10:14:40;100964.97;;;24.13;39.05
72294;BME280;60632;49.236;8.398;2023-04-19T10:17:41;100960.25;;;24.14;38.84
72294;BME280;60632;49.236;8.398;2023-04-19T10:23:45;100962.69;;;24.15;38.86
72294;BME280;60632;49.236;8.398;2023-04-19T10:30:02;100957.69;;;24.17;39.10
72294;BME280;60632;49.236;8.398;2023-04-19T10:33:04;100957.34;;;24.19;38.97
72294;BME280;60632;49.236;8.398;2023-04-19T10:36:09;100957.34;;;24.19;38.96
72294;BME280;60632;49.236;8.398;2023-04-19T10:39:37;100955.09;;;24.21;39.06
72294;BME280;60632;49.236;8.398;2023-04-19T10:45:50;100952.84;;;24.23;39.10
72294;BME280;60632;49.236;8.398;2023-04-19T10:48:51;100944.22;;;24.25;38.85
72294;BME280;60632;49.236;8.398;2023-04-19T10:51:53;100952.22;;;24.26;38.87
72294;BME280;60632;49.236;8.398;2023-04-19T10:54:57;100938.38;;;24.26;39.07
72294;BME280;60632;49.236;8.398;2023-04-19T10:58:00;100947.50;;;24.27;38.95
72294;BME280;60632;49.236;8.398;2023-04-19T11:04:57;100936.09;;;24.28;39.14
72294;BME280;60632;49.236;8.398;2023-04-19T11:07:44;100933.03;;;24.30;38.98
72294;BME280;60632;49.236;8.398;2023-04-19T11:10:44;100920.00;;;24.30;39.04
72294;BME280;60632;49.236;8.398;2023-04-19T11:13:48;100920.81;;;24.31;38.96
72294;BME280;60632;49.236;8.398;2023-04-19T11:16:48;100921.63;;;24.31;39.07
72294;BME280;60632;49.236;8.398;2023-04-19T11:19:52;100912.22;;;24.32;39.00
72294;BME280;60632;49.236;8.398;2023-04-19T11:22:53;100916.59;;;24.33;38.97
72294;BME280;60632;49.236;8.398;2023-04-19T11:25:59;100915.47;;;24.34;39.10
72294;BME280;60632;49.236;8.398;2023-04-19T11:28:59;100913.22;;;24.36;39.08
72294;BME280;60632;49.236;8.398;2023-04-19T11:32:00;100913.22;;;24.36;39.08
72294;BME280;60632;49.236;8.398;2023-04-19T11:35:04;100911.25;;;24.37;39.22
72294;BME280;60632;49.236;8.398;2023-04-19T11:38:05;100908.16;;;24.38;38.95
72294;BME280;60632;49.236;8.398;2023-04-19T11:41:05;100909.31;;;24.37;39.04
72294;BME280;60632;49.236;8.398;2023-04-19T11:44:15;100899.03;;;24.38;39.07
72294;BME280;60632;49.236;8.398;2023-04-19T11:47:16;100899.84;;;24.38;39.21
72294;BME280;60632;49.236;8.398;2023-04-19T11:53:36;100888.78;;;24.38;39.22
72294;BME280;60632;49.236;8.398;2023-04-19T11:56:55;100895.16;;;24.39;39.17
72294;BME280;60632;49.236;8.398;2023-04-19T12:00:06;100892.38;;;24.39;39.24
72294;BME280;60632;49.236;8.398;2023-04-19T12:03:11;100893.72;;;24.41;39.29
72294;BME280;60632;49.236;8.398;2023-04-19T12:06:12;100893.72;;;24.41;39.06
72294;BME280;60632;49.236;8.398;2023-04-19T12:09:13;100887.06;;;24.42;39.15
72294;BME280;60632;49.236;8.398;2023-04-19T12:12:31;100873.22;;;24.42;39.16
72294;BME280;60632;49.236;8.398;2023-04-19T12:15:41;100882.00;;;24.44;39.29
72294;BME280;60632;49.236;8.398;2023-04-19T12:18:46;100876.47;;;24.44;39.21
72294;BME280;60632;49.236;8.398;2023-04-19T12:21:48;100870.91;;;24.44;39.13
72294;BME280;60632;49.236;8.398;2023-04-19T12:24:51;100867.03;;;24.46;39.27
72294;BME280;60632;49.236;8.398;2023-04-19T12:27:55;100862.31;;;24.46;39.02
72294;BME280;60632;49.236;8.398;2023-04-19T12:30:55;100864.75;;;24.48;39.16
72294;BME280;60632;49.236;8.398;2023-04-19T12:33:56;100866.41;;;24.49;39.13
72294;BME280;60632;49.236;8.398;2023-04-19T12:36:56;100862.50;;;24.50;39.27
72294;BME280;60632;49.236;8.398;2023-04-19T12:39:56;100856.97;;;24.50;39.30
72294;BME280;60632;49.236;8.398;2023-04-19T12:42:57;100858.59;;;24.51;39.33
72294;BME280;60632;49.236;8.398;2023-04-19T12:45:57;100849.16;;;24.52;39.14
72294;BME280;60632;49.236;8.398;2023-04-19T12:48:58;100850.78;;;24.53;39.19
72294;BME280;60632;49.236;8.398;2023-04-19T12:51:58;100846.88;;;24.54;39.16
72294;BME280;60632;49.236;8.398;2023-04-19T12:54:58;100839.69;;;24.53;39.28
72294;BME280;60632;49.236;8.398;2023-04-19T12:57:59;100833.53;;;24.56;39.51
72294;BME280;60632;49.236;8.398;2023-04-19T13:01:00;100828.81;;;24.56;39.33
72294;BME280;60632;49.236;8.398;2023-04-19T13:04:00;100829.63;;;24.57;39.14
72294;BME280;60632;49.236;8.398;2023-04-19T13:07:00;100824.88;;;24.57;39.57
72294;BME280;60632;49.236;8.398;2023-04-19T13:10:01;100824.59;;;24.59;39.21
72294;BME280;60632;49.236;8.398;2023-04-19T13:13:02;100810.72;;;24.59;39.51
72294;BME280;60632;49.236;8.398;2023-04-19T13:16:02;100816.28;;;24.59;39.32
72294;BME280;60632;49.236;8.398;2023-04-19T13:19:03;100802.91;;;24.61;39.26
72294;BME280;60632;49.236;8.398;2023-04-19T13:22:04;100798.50;;;24.60;39.19
72294;BME280;60632;49.236;8.398;2023-04-19T13:25:05;100796.53;;;24.60;39.21
72294;BME280;60632;49.236;8.398;2023-04-19T13:28:05;100791.81;;;24.61;39.36
72294;BME280;60632;49.236;8.398;2023-04-19T13:31:06;100791.81;;;24.61;39.42
72294;BME280;60632;49.236;8.398;2023-04-19T13:34:06;100789.03;;;24.61;39.28
72294;BME280;60632;49.236;8.398;2023-04-19T13:37:06;100780.72;;;24.61;39.32
72294;BME280;60632;49.236;8.398;2023-04-19T13:40:07;100768.53;;;24.62;39.15
72294;BME280;60632;49.236;8.398;2023-04-19T13:43:07;100776.84;;;24.62;39.50
72294;BME280;60632;49.236;8.398;2023-04-19T13:46:08;100767.72;;;24.61;39.34
72294;BME280;60632;49.236;8.398;2023-04-19T13:49:08;100754.66;;;24.62;39.19
72294;BME280;60632;49.236;8.398;2023-04-19T13:52:08;100759.88;;;24.63;39.29
72294;BME280;60632;49.236;8.398;2023-04-19T13:55:09;100745.22;;;24.63;39.27
72294;BME280;60632;49.236;8.398;2023-04-19T13:58:10;100734.94;;;24.63;39.41
72294;BME280;60632;49.236;8.398;2023-04-19T14:01:10;100744.41;;;24.62;39.48
72294;BME280;60632;49.236;8.398;2023-04-19T14:04:11;100738.84;;;24.62;39.30
72294;BME280;60632;49.236;8.398;2023-04-19T14:07:11;100733.31;;;24.62;39.26
72294;BME280;60632;49.236;8.398;2023-04-19T14:10:12;100719.47;;;24.62;39.32
72294;BME280;60632;49.236;8.398;2023-04-19T14:13:12;100722.22;;;24.62;39.23
72294;BME280;60632;49.236;8.398;2023-04-19T14:16:12;100720.28;;;24.63;39.35
72294;BME280;60632;49.236;8.398;2023-04-19T14:19:13;100718.31;;;24.63;39.41
72294;BME280;60632;49.236;8.398;2023-04-19T14:22:14;100714.72;;;24.63;39.32
72294;BME280;60632;49.236;8.398;2023-04-19T14:25:15;100702.50;;;24.64;39.60
72294;BME280;60632;49.236;8.398;2023-04-19T14:28:17;100696.94;;;24.64;39.41
72294;BME280;60632;49.236;8.398;2023-04-19T14:31:17;100694.19;;;24.64;39.27
72294;BME280;60632;49.236;8.398;2023-04-19T14:34:18;100700.56;;;24.64;39.42
72294;BME280;60632;49.236;8.398;2023-04-19T14:37:19;100698.59;;;24.65;39.32
72294;BME280;60632;49.236;8.398;2023-04-19T14:40:20;100700.22;;;24.66;39.32
72294;BME280;60632;49.236;8.398;2023-04-19T14:43:21;100694.69;;;24.66;39.33
72294;BME280;60632;49.236;8.398;2023-04-19T14:46:22;100688.00;;;24.67;39.32
72294;BME280;60632;49.236;8.398;2023-04-19T14:49:22;100685.75;;;24.69;39.26
72294;BME280;60632;49.236;8.398;2023-04-19T14:52:23;100682.97;;;24.69;39.31
72294;BME280;60632;49.236;8.398;2023-04-19T14:55:23;100690.13;;;24.70;39.33
72294;BME280;60632;49.236;8.398;2023-04-19T14:58:25;100691.78;;;24.71;39.44
72294;BME280;60632;49.236;8.398;2023-04-19T15:01:26;100676.78;;;24.72;39.41
72294;BME280;60632;49.236;8.398;2023-04-19T15:04:26;100672.06;;;24.73;39.28
72294;BME280;60632;49.236;8.398;2023-04-19T15:07:26;100678.41;;;24.73;39.28
72294;BME280;60632;49.236;8.398;2023-04-19T15:10:27;100671.75;;;24.74;39.42
72294;BME280;60632;49.236;8.398;2023-04-19T15:13:27;100682.50;;;24.76;39.37
72294;BME280;60632;49.236;8.398;2023-04-19T15:16:28;100677.75;;;24.76;39.25
72294;BME280;60632;49.236;8.398;2023-04-19T15:19:29;100671.91;;;24.78;39.25
72294;BME280;60632;49.236;8.398;2023-04-19T15:22:31;100671.56;;;24.79;39.25
72294;BME280;60632;49.236;8.398;2023-04-19T15:25:31;100664.88;;;24.80;39.35
72294;BME280;60632;49.236;8.398;2023-04-19T15:28:32;100666.84;;;24.80;39.25
72294;BME280;60632;49.236;8.398;2023-04-19T15:31:34;100669.63;;;24.80;39.48
72294;BME280;60632;49.236;8.398;2023-04-19T15:34:34;100685.94;;;24.81;39.35
72294;BME280;60632;49.236;8.398;2023-04-19T15:37:35;100685.94;;;24.81;39.45
72294;BME280;60632;49.236;8.398;2023-04-19T15:40:35;100694.25;;;24.81;39.46
72294;BME280;60632;49.236;8.398;2023-04-19T15:43:37;100693.94;;;24.83;39.37
72294;BME280;60632;49.236;8.398;2023-04-19T15:46:38;100688.38;;;24.83;39.23
72294;BME280;60632;49.236;8.398;2023-04-19T15:49:38;100687.56;;;24.82;39.28
72294;BME280;60632;49.236;8.398;2023-04-19T15:52:39;100680.88;;;24.83;39.36
72294;BME280;60632;49.236;8.398;2023-04-19T15:55:40;100683.66;;;24.83;39.20
72294;BME280;60632;49.236;8.398;2023-04-19T15:58:40;100690.84;;;24.84;39.35
72294;BME280;60632;49.236;8.398;2023-04-19T16:01:41;100688.38;;;24.83;39.34
72294;BME280;60632;49.236;8.398;2023-04-19T16:04:41;100686.41;;;24.83;39.36